Terminal Aerodrome Forecast
Issued by NWS Charleston, WV

Current Version | Previous Version | Graphics & Text | Print | Product List | Glossary On
Versions: 1 2 3 4 5 6 7 8 9 10 11 12 13 14 15 16 17 18 19 20 21 22 23
000
FTUS41 KRLX 261400 AAA
TAFCRW
TAF AMD
KCRW 261422Z 2614/2712 33005KT 2SM -SN BR BKN003 OVC012
     FM261500 36004KT 4SM -RASN BR OVC060
     FM261800 00000KT P6SM OVC020
     FM262300 00000KT P6SM BKN030
     FM270400 00000KT P6SM BKN030=

USA.gov is the U.S. government's official web portal to all federal, state and local government web resources and services.